createdAt,value
2022-09-13T00:01:55.184Z,3.70
2022-09-13T00:04:22.470Z,3.75
2022-09-13T00:06:49.700Z,3.33
2022-09-13T00:09:16.915Z,2.97
2022-09-13T00:11:44.133Z,3.38
2022-09-13T00:14:11.347Z,3.65
2022-09-13T00:16:38.715Z,3.30
2022-09-13T00:19:06.006Z,3.55
2022-09-13T00:21:33.368Z,3.60
2022-09-13T00:24:00.515Z,3.78
2022-09-13T00:26:28.835Z,3.40
2022-09-13T00:28:58.191Z,3.50
2022-09-13T00:36:21.986Z,3.63
2022-09-13T00:38:49.247Z,3.88
2022-09-13T00:41:18.717Z,3.80
2022-09-13T00:43:52.821Z,3.67
2022-09-13T00:46:40.375Z,3.50
2022-09-13T00:49:26.804Z,3.58
2022-09-13T00:51:58.575Z,3.83
2022-09-13T00:54:29.784Z,3.65
2022-09-13T00:56:58.647Z,3.47
2022-09-13T00:59:30.139Z,3.20
2022-09-13T01:01:58.110Z,3.78
2022-09-13T01:04:27.671Z,3.70
2022-09-13T01:06:56.735Z,3.55
2022-09-13T01:09:24.356Z,3.92
2022-09-13T01:12:10.129Z,3.60
2022-09-13T01:14:38.036Z,3.25
2022-09-13T01:17:05.616Z,3.72
2022-09-13T01:19:32.886Z,4.00
2022-09-13T01:22:34.733Z,3.63
2022-09-13T01:25:50.407Z,3.72
2022-09-13T01:28:32.685Z,4.00
2022-09-13T01:31:15.200Z,4.05
2022-09-13T01:34:10.530Z,3.92
2022-09-13T01:37:26.047Z,4.03
2022-09-13T01:40:09.895Z,3.92
2022-09-13T01:43:01.447Z,3.80
2022-09-13T01:45:40.777Z,3.80
2022-09-13T01:48:20.442Z,3.70
2022-09-13T01:51:05.237Z,4.18
2022-09-13T01:53:56.056Z,3.90
2022-09-13T01:56:38.083Z,4.07
2022-09-13T01:59:20.838Z,4.28
2022-09-13T02:02:11.920Z,4.18
2022-09-13T02:04:43.415Z,4.60
2022-09-13T02:07:20.025Z,4.32
2022-09-13T02:09:50.594Z,4.60
2022-09-13T02:12:21.818Z,4.78
2022-09-13T02:15:07.573Z,4.57
2022-09-13T02:17:39.702Z,4.18
2022-09-13T02:20:40.840Z,4.15
2022-09-13T02:23:15.249Z,4.70
2022-09-13T02:25:42.524Z,4.13
2022-09-13T02:28:13.455Z,4.18
2022-09-13T02:30:45.781Z,4.53
2022-09-13T02:33:19.050Z,4.75
2022-09-13T02:35:53.999Z,4.95
2022-09-13T02:38:36.200Z,4.65
2022-09-13T02:41:48.094Z,4.88
2022-09-13T02:44:39.063Z,4.30
2022-09-13T02:47:22.641Z,4.43
2022-09-13T02:50:31.029Z,4.75
2022-09-13T02:53:03.487Z,4.85
2022-09-13T02:55:54.336Z,5.15
2022-09-13T02:58:29.125Z,4.53
2022-09-13T03:00:56.465Z,4.97
2022-09-13T03:03:25.236Z,4.97
2022-09-13T03:05:53.706Z,4.30
2022-09-13T03:08:22.214Z,5.00
2022-09-13T03:11:10.940Z,5.57
2022-09-13T03:13:53.362Z,5.30
2022-09-13T03:16:51.562Z,5.10
2022-09-13T03:19:29.038Z,4.97
2022-09-13T03:22:06.732Z,4.88
2022-09-13T03:24:44.361Z,5.55
2022-09-13T03:27:50.955Z,5.43
2022-09-13T03:30:18.833Z,5.28
2022-09-13T03:33:02.778Z,5.30
2022-09-13T03:35:39.901Z,5.07
2022-09-13T03:38:22.057Z,5.50
2022-09-13T03:40:54.728Z,5.50
2022-09-13T03:43:25.953Z,5.47
2022-09-13T03:45:59.140Z,5.03
2022-09-13T03:48:27.844Z,5.60
2022-09-13T03:50:55.587Z,5.53
2022-09-13T03:53:25.487Z,5.38
2022-09-13T03:55:52.760Z,5.80
2022-09-13T03:58:20.979Z,5.68
2022-09-13T04:00:48.240Z,5.40
2022-09-13T04:03:15.730Z,5.15
2022-09-13T04:05:43.021Z,5.50
2022-09-13T04:08:10.220Z,5.97
2022-09-13T04:10:37.841Z,5.90
2022-09-13T04:13:05.345Z,5.28
2022-09-13T04:15:32.721Z,5.05
2022-09-13T04:18:01.019Z,5.53
2022-09-13T04:20:28.309Z,5.72
2022-09-13T04:22:57.365Z,6.00
2022-09-13T04:25:25.060Z,5.20
2022-09-13T04:27:56.352Z,5.82
2022-09-13T04:30:23.767Z,5.78
2022-09-13T04:32:51.012Z,6.15
2022-09-13T04:35:19.720Z,5.78
2022-09-13T04:37:47.238Z,6.38
2022-09-13T04:40:14.654Z,6.32
2022-09-13T04:42:43.497Z,6.10
2022-09-13T04:45:11.034Z,5.85
2022-09-13T04:47:38.216Z,6.60
2022-09-13T04:50:05.648Z,5.97
2022-09-13T04:52:33.463Z,6.13
2022-09-13T04:55:02.150Z,6.47
2022-09-13T04:57:29.712Z,6.32
2022-09-13T04:59:57.037Z,6.20
2022-09-13T05:02:24.394Z,6.57
2022-09-13T05:04:51.744Z,6.93
2022-09-13T05:07:18.937Z,6.72
2022-09-13T05:09:46.098Z,6.38
2022-09-13T05:12:13.291Z,7.68
2022-09-13T05:14:41.550Z,6.95
2022-09-13T05:17:15.876Z,7.13
2022-09-13T05:19:49.761Z,6.88
2022-09-13T05:22:42.244Z,7.22
2022-09-13T05:25:09.756Z,6.65
2022-09-13T05:27:37.005Z,6.95
2022-09-13T05:30:04.964Z,6.60
2022-09-13T05:32:32.805Z,6.80
2022-09-13T05:35:00.016Z,6.95
2022-09-13T05:37:27.170Z,6.47
2022-09-13T05:40:10.766Z,7.22
2022-09-13T05:42:39.124Z,8.02
2022-09-13T05:45:06.916Z,7.97
2022-09-13T05:47:34.077Z,7.95
2022-09-13T05:50:10.403Z,7.97
2022-09-13T05:52:39.139Z,8.38
2022-09-13T05:55:06.418Z,9.35
2022-09-13T05:57:33.636Z,9.80
2022-09-13T06:00:00.798Z,9.45
2022-09-13T06:02:28.034Z,9.95
2022-09-13T06:04:55.291Z,10.38
2022-09-13T06:07:22.449Z,9.98
2022-09-13T06:09:49.744Z,10.18
2022-09-13T06:12:16.921Z,10.20
2022-09-13T06:14:44.077Z,10.52
2022-09-13T06:17:11.226Z,10.43
2022-09-13T06:19:39.736Z,10.23
2022-09-13T06:22:07.882Z,10.43
2022-09-13T06:24:37.895Z,10.93
2022-09-13T06:27:05.821Z,10.30
2022-09-13T06:29:34.986Z,9.70
2022-09-13T06:32:03.055Z,9.98
2022-09-13T06:34:31.434Z,9.85
2022-09-13T06:36:58.767Z,10.23
2022-09-13T06:39:26.024Z,11.32
2022-09-13T06:41:53.161Z,10.23
2022-09-13T06:44:20.298Z,9.45
2022-09-13T06:46:47.519Z,10.70
2022-09-13T06:49:14.691Z,10.55
2022-09-13T06:51:41.900Z,10.38
2022-09-13T06:54:09.502Z,10.40
2022-09-13T06:56:38.771Z,11.18
2022-09-13T07:01:36.635Z,10.17
2022-09-13T07:04:05.577Z,11.02
2022-09-13T07:06:38.578Z,11.23
2022-09-13T07:09:08.320Z,10.73
2022-09-13T07:11:37.913Z,10.75
2022-09-13T07:14:09.322Z,10.43
2022-09-13T07:16:40.478Z,11.07
2022-09-13T07:19:12.131Z,10.57
2022-09-13T07:21:39.358Z,10.55
2022-09-13T07:24:06.934Z,10.45
2022-09-13T07:26:34.515Z,11.60
2022-09-13T07:29:04.132Z,12.15
2022-09-13T07:31:34.078Z,10.80
2022-09-13T07:34:06.665Z,11.98
2022-09-13T07:36:35.172Z,10.00
2022-09-13T07:39:03.408Z,10.88
2022-09-13T07:41:31.965Z,9.85
2022-09-13T07:44:01.613Z,10.10
2022-09-13T07:46:33.553Z,10.82
2022-09-13T07:49:02.003Z,9.90
2022-09-13T07:51:31.356Z,11.47
2022-09-13T07:54:00.671Z,10.88
2022-09-13T07:59:01.012Z,10.40
2022-09-13T08:01:31.178Z,10.45
2022-09-13T08:04:00.448Z,10.50
2022-09-13T08:06:30.096Z,9.85
2022-09-13T08:08:57.624Z,10.52
2022-09-13T08:11:27.816Z,10.63
2022-09-13T08:13:55.058Z,10.00
2022-09-13T08:16:23.858Z,10.45
2022-09-13T08:18:56.582Z,10.23
2022-09-13T08:21:25.058Z,11.07
2022-09-13T08:23:56.855Z,10.27
2022-09-13T08:26:24.114Z,8.98
2022-09-13T08:28:57.212Z,10.05
2022-09-13T08:31:24.617Z,9.85
2022-09-13T08:33:52.117Z,9.02
2022-09-13T08:36:19.950Z,9.55
2022-09-13T08:38:59.178Z,9.70
2022-09-13T08:41:52.679Z,9.38
2022-09-13T08:44:35.495Z,9.52
2022-09-13T08:47:30.964Z,8.73
2022-09-13T08:50:18.806Z,8.90
2022-09-13T08:52:58.856Z,8.95
2022-09-13T08:55:32.571Z,8.63
2022-09-13T08:58:18.180Z,8.40
2022-09-13T09:00:50.033Z,8.18
2022-09-13T09:03:44.707Z,8.32
2022-09-13T09:06:16.691Z,7.72
2022-09-13T09:08:47.162Z,8.02
2022-09-13T09:11:51.991Z,8.15
2022-09-13T09:14:35.694Z,7.32
2022-09-13T09:17:07.420Z,6.80
2022-09-13T09:19:40.962Z,7.10
2022-09-13T09:22:18.156Z,6.85
2022-09-13T09:24:49.408Z,7.20
2022-09-13T09:27:18.950Z,6.50
2022-09-13T09:29:48.130Z,6.72
2022-09-13T09:35:09.025Z,6.22
2022-09-13T09:37:37.744Z,5.97
2022-09-13T09:40:10.494Z,6.45
2022-09-13T09:42:46.220Z,5.53
2022-09-13T09:45:26.649Z,5.88
2022-09-13T09:47:54.929Z,6.22
2022-09-13T09:50:32.768Z,5.90
2022-09-13T09:53:30.004Z,5.68
2022-09-13T09:56:26.854Z,5.68
2022-09-13T09:58:55.820Z,5.82
2022-09-13T10:01:30.389Z,6.18
2022-09-13T10:04:08.724Z,6.05
2022-09-13T10:06:37.697Z,5.88
2022-09-13T10:09:07.649Z,5.32
2022-09-13T10:11:56.417Z,5.50
2022-09-13T10:14:45.851Z,5.93
2022-09-13T10:17:23.374Z,5.32
2022-09-13T10:20:21.370Z,4.95
2022-09-13T10:23:14.604Z,5.05
2022-09-13T10:25:47.739Z,4.97
2022-09-13T10:28:18.426Z,4.93
2022-09-13T10:30:59.820Z,5.32
2022-09-13T10:33:34.344Z,4.32
2022-09-13T10:36:07.310Z,5.45
2022-09-13T10:38:39.264Z,5.15
2022-09-13T10:41:21.959Z,4.65
2022-09-13T10:43:56.135Z,4.15
2022-09-13T10:46:24.306Z,4.63
2022-09-13T10:48:56.140Z,4.87
2022-09-13T10:51:34.566Z,4.03
2022-09-13T10:54:23.351Z,4.60
2022-09-13T10:56:51.327Z,4.70
2022-09-13T10:59:30.047Z,5.25
2022-09-13T11:02:28.699Z,5.38
2022-09-13T11:05:06.814Z,6.10
2022-09-13T11:07:40.066Z,6.27
2022-09-13T11:10:22.120Z,6.07
2022-09-13T11:13:07.492Z,7.10
2022-09-13T11:15:58.455Z,7.68
2022-09-13T11:18:37.252Z,7.55
2022-09-13T11:21:24.697Z,7.30
2022-09-13T11:24:18.069Z,6.95
2022-09-13T11:27:10.317Z,8.65
2022-09-13T11:29:55.706Z,6.80
2022-09-13T11:32:47.680Z,7.47
2022-09-13T11:35:34.628Z,7.95
2022-09-13T11:38:31.303Z,7.63
2022-09-13T11:41:28.210Z,8.05
2022-09-13T11:44:13.015Z,8.05
2022-09-13T11:46:55.999Z,8.30
2022-09-13T11:49:34.307Z,7.90
2022-09-13T11:52:09.066Z,8.77
2022-09-13T11:55:14.149Z,8.00
2022-09-13T11:57:59.343Z,7.97
2022-09-13T12:00:40.621Z,8.80
2022-09-13T12:03:11.310Z,8.63
2022-09-13T12:05:44.129Z,8.15
2022-09-13T12:08:23.504Z,8.30
2022-09-13T12:10:56.851Z,7.40
2022-09-13T12:13:27.869Z,8.55
2022-09-13T12:16:02.177Z,8.75
2022-09-13T12:18:41.254Z,8.15
2022-09-13T12:23:44.993Z,8.88
2022-09-13T12:26:35.794Z,8.80
2022-09-13T12:29:19.433Z,8.20
2022-09-13T12:31:46.809Z,7.50
2022-09-13T12:34:30.661Z,8.00
2022-09-13T12:37:08.963Z,8.77
2022-09-13T12:39:49.219Z,8.82
2022-09-13T12:42:55.068Z,8.20
2022-09-13T12:45:41.039Z,8.05
2022-09-13T12:48:25.106Z,9.45
2022-09-13T12:51:04.212Z,7.78
2022-09-13T12:54:07.593Z,7.85
2022-09-13T12:56:50.868Z,8.77
2022-09-13T12:59:52.265Z,8.77
2022-09-13T13:02:33.107Z,8.02
2022-09-13T13:05:21.984Z,7.70
2022-09-13T13:08:18.908Z,8.82
2022-09-13T13:11:00.549Z,8.43
2022-09-13T13:14:00.614Z,10.02
2022-09-13T13:16:41.054Z,9.32
2022-09-13T13:19:44.986Z,9.40
2022-09-13T13:22:42.660Z,9.43
2022-09-13T13:25:54.267Z,9.57
2022-09-13T13:28:44.127Z,8.85
2022-09-13T13:31:34.100Z,8.13
2022-09-13T13:34:31.853Z,8.93
2022-09-13T13:37:06.161Z,8.98
2022-09-13T13:39:39.186Z,8.85
2022-09-13T13:42:26.627Z,8.18
2022-09-13T13:44:53.887Z,8.02
2022-09-13T13:47:42.010Z,9.15
2022-09-13T13:50:16.419Z,8.23
2022-09-13T13:53:04.133Z,8.07
2022-09-13T13:55:47.090Z,8.75
2022-09-13T13:58:27.773Z,8.18
2022-09-13T14:00:56.776Z,7.85
2022-09-13T14:06:33.319Z,8.32
2022-09-13T14:09:06.512Z,8.23
2022-09-13T14:11:46.869Z,7.55
2022-09-13T14:14:33.379Z,8.07
2022-09-13T14:17:31.757Z,7.85
2022-09-13T14:20:12.391Z,7.22
2022-09-13T14:22:39.812Z,7.10
2022-09-13T14:25:33.881Z,8.32
2022-09-13T14:28:02.473Z,6.95
2022-09-13T14:30:35.096Z,7.72
2022-09-13T14:33:05.233Z,6.75
2022-09-13T14:35:36.908Z,6.50
2022-09-13T14:38:21.425Z,6.55
2022-09-13T14:40:53.987Z,6.28
2022-09-13T14:43:24.946Z,6.75
2022-09-13T14:46:19.899Z,6.43
2022-09-13T14:48:55.569Z,6.63
2022-09-13T14:51:29.941Z,5.65
2022-09-13T14:54:01.053Z,6.13
2022-09-13T14:56:42.195Z,5.07
2022-09-13T14:59:27.594Z,5.00
2022-09-13T15:01:55.712Z,4.97
2022-09-13T15:04:25.034Z,4.80
2022-09-13T15:07:20.739Z,4.82
2022-09-13T15:09:48.052Z,4.28
2022-09-13T15:12:28.220Z,4.30
2022-09-13T15:15:26.226Z,4.57
2022-09-13T15:17:59.543Z,4.60
2022-09-13T15:20:51.571Z,4.70
2022-09-13T15:23:33.823Z,4.50
2022-09-13T15:26:22.594Z,4.70
2022-09-13T15:28:50.775Z,4.63
2022-09-13T15:31:23.097Z,4.10
2022-09-13T15:34:10.474Z,3.80
2022-09-13T15:36:40.287Z,4.00
2022-09-13T15:39:15.062Z,4.07
2022-09-13T15:41:51.475Z,4.47
2022-09-13T15:44:18.992Z,3.65
2022-09-13T15:46:56.102Z,3.85
2022-09-13T15:49:27.241Z,4.38
2022-09-13T15:51:57.973Z,4.47
2022-09-13T15:54:37.389Z,3.95
2022-09-13T15:57:08.594Z,3.50
2022-09-13T15:59:36.267Z,3.95
2022-09-13T16:02:26.660Z,3.95
2022-09-13T16:04:54.296Z,4.07
2022-09-13T16:07:21.794Z,3.78
2022-09-13T16:09:49.760Z,3.72
2022-09-13T16:12:19.170Z,3.42
2022-09-13T16:14:47.620Z,4.03
2022-09-13T16:17:20.563Z,3.30
2022-09-13T16:19:47.887Z,3.58
2022-09-13T16:22:15.422Z,4.03
2022-09-13T16:24:42.734Z,4.05
2022-09-13T16:27:15.500Z,3.50
2022-09-13T16:30:35.098Z,3.00
2022-09-13T16:33:57.109Z,3.50
2022-09-13T16:51:18.288Z,2.58
2022-09-13T16:53:46.173Z,2.33
2022-09-13T16:56:25.506Z,2.50
2022-09-13T17:02:11.472Z,2.50
2022-09-13T17:04:39.271Z,2.40
2022-09-13T17:07:19.163Z,2.33
2022-09-13T17:09:47.268Z,1.90
2022-09-13T17:12:15.672Z,2.30
2022-09-13T17:14:45.345Z,2.20
2022-09-13T17:17:12.836Z,2.25
2022-09-13T17:19:40.339Z,2.22
2022-09-13T17:22:09.898Z,2.25
2022-09-13T17:24:38.031Z,2.03
2022-09-13T17:27:18.804Z,2.30
2022-09-13T17:29:47.082Z,2.10
2022-09-13T17:34:57.321Z,2.42
2022-09-13T17:37:42.954Z,2.22
2022-09-13T17:40:10.419Z,2.33
2022-09-13T17:42:38.466Z,2.33
2022-09-13T17:45:13.311Z,2.67
2022-09-13T17:48:20.761Z,2.47
2022-09-13T17:50:48.859Z,2.58
2022-09-13T17:53:19.506Z,3.45
2022-09-13T17:55:51.004Z,3.08
2022-09-13T17:58:27.327Z,3.42
2022-09-13T18:01:06.257Z,3.58
2022-09-13T18:03:35.374Z,3.67
2022-09-13T18:06:05.734Z,3.85
2022-09-13T18:08:35.220Z,3.45
2022-09-13T18:11:13.122Z,2.63
2022-09-13T18:13:45.358Z,4.28
2022-09-13T18:16:21.579Z,3.30
2022-09-13T18:18:50.501Z,3.30
2022-09-13T18:21:20.684Z,3.60
2022-09-13T18:23:57.979Z,4.80
2022-09-13T18:26:26.470Z,3.78
2022-09-13T18:29:01.653Z,3.53
2022-09-13T18:31:34.015Z,3.97
2022-09-13T18:34:04.103Z,4.68
2022-09-13T18:36:35.494Z,4.18
2022-09-13T18:39:04.959Z,4.38
2022-09-13T18:44:02.213Z,4.20
2022-09-13T18:46:32.475Z,4.65
2022-09-13T18:49:00.368Z,5.00
2022-09-13T18:51:30.600Z,5.13
2022-09-13T18:53:59.724Z,5.35
2022-09-13T18:59:00.047Z,6.03
2022-09-13T19:11:45.857Z,9.35
2022-09-13T19:17:43.808Z,7.20
2022-09-13T19:23:37.646Z,9.18
2022-09-13T19:32:59.902Z,7.03
2022-09-13T19:35:28.974Z,7.18
2022-09-13T19:38:03.890Z,6.88
2022-09-13T19:40:35.812Z,7.50
2022-09-13T19:43:03.675Z,6.85
2022-09-13T19:45:31.587Z,8.18
2022-09-13T19:48:37.676Z,7.35
2022-09-13T19:51:05.916Z,7.10
2022-09-13T19:53:55.970Z,8.60
2022-09-13T19:56:27.042Z,7.53
2022-09-13T19:58:55.041Z,7.90
2022-09-13T20:01:25.760Z,7.53
2022-09-13T20:04:01.570Z,7.20
2022-09-13T20:06:37.706Z,7.38
2022-09-13T20:09:05.620Z,7.22
2022-09-13T20:11:36.631Z,7.78
2022-09-13T20:14:23.988Z,7.35
2022-09-13T20:16:55.105Z,7.15
2022-09-13T20:19:42.513Z,7.00
2022-09-13T20:22:23.574Z,7.63
2022-09-13T20:24:55.994Z,7.35
2022-09-13T20:27:28.907Z,6.82
2022-09-13T20:30:00.317Z,7.75
2022-09-13T20:32:31.505Z,7.20
2022-09-13T20:35:44.932Z,7.90
2022-09-13T20:38:29.570Z,7.30
2022-09-13T20:41:14.460Z,7.53
2022-09-13T21:02:47.869Z,7.05
2022-09-13T21:05:20.742Z,6.80
2022-09-13T21:08:07.011Z,6.53
2022-09-13T21:10:35.705Z,6.55
2022-09-13T21:13:03.913Z,5.80
2022-09-13T21:15:32.587Z,5.32
2022-09-13T21:17:59.904Z,5.35
2022-09-13T21:20:27.401Z,5.45
2022-09-13T21:22:55.287Z,4.78
2022-09-13T21:25:22.585Z,4.63
2022-09-13T21:27:50.052Z,4.57
2022-09-13T21:30:17.579Z,4.15
2022-09-13T21:32:44.961Z,4.03
2022-09-13T21:35:13.393Z,4.30
2022-09-13T21:37:40.804Z,3.53
2022-09-13T21:40:08.637Z,3.70
2022-09-13T21:42:36.043Z,3.60
2022-09-13T21:45:03.843Z,4.03
2022-09-13T21:47:31.249Z,2.90
2022-09-13T21:49:58.785Z,3.40
2022-09-13T21:52:27.007Z,3.10
2022-09-13T21:54:55.496Z,3.47
2022-09-13T21:57:24.061Z,2.83
2022-09-13T21:59:51.786Z,2.80
2022-09-13T22:02:19.263Z,2.53
2022-09-13T22:04:47.927Z,2.78
2022-09-13T22:07:19.394Z,3.10
2022-09-13T22:09:46.955Z,2.90
2022-09-13T22:12:14.414Z,3.10
2022-09-13T22:14:41.958Z,3.08
2022-09-13T22:17:09.630Z,3.05
2022-09-13T22:19:44.084Z,2.90
2022-09-13T22:22:11.398Z,3.22
2022-09-13T22:24:46.614Z,2.97
2022-09-13T22:27:14.207Z,3.13
2022-09-13T22:29:44.848Z,3.10
2022-09-13T22:32:12.090Z,3.42
2022-09-13T22:34:41.013Z,3.13
2022-09-13T22:37:09.426Z,3.17
2022-09-13T22:39:37.849Z,3.50
2022-09-13T22:42:15.899Z,3.43
2022-09-13T22:44:45.195Z,3.40
2022-09-13T22:49:52.111Z,3.00
2022-09-13T22:52:19.591Z,2.78
2022-09-13T22:54:47.033Z,2.72
2022-09-13T22:57:14.356Z,2.95
2022-09-13T22:59:41.775Z,3.50
2022-09-13T23:02:09.838Z,2.85
2022-09-13T23:04:37.332Z,2.80
2022-09-13T23:07:04.766Z,2.88
2022-09-13T23:09:32.198Z,2.78
2022-09-13T23:11:59.549Z,2.58
2022-09-13T23:14:29.329Z,2.50
2022-09-13T23:16:56.596Z,2.30
2022-09-13T23:19:25.725Z,2.28
2022-09-13T23:21:54.055Z,2.75
2022-09-13T23:24:22.095Z,2.50
2022-09-13T23:26:50.039Z,2.92
2022-09-13T23:29:20.512Z,3.10
2022-09-13T23:31:49.985Z,3.20
2022-09-13T23:34:17.913Z,3.33
2022-09-13T23:36:46.257Z,3.35
2022-09-13T23:39:20.803Z,3.25
2022-09-13T23:41:49.664Z,2.50
2022-09-13T23:44:17.819Z,3.30
2022-09-13T23:46:45.216Z,2.85
2022-09-13T23:49:12.822Z,3.60
2022-09-13T23:51:40.751Z,3.35
2022-09-13T23:54:08.506Z,2.97
2022-09-13T23:56:36.692Z,3.70
2022-09-13T23:59:05.014Z,3.30
